PWSweather.com
Personal Weather Stations
Station Observations
KAZPHOEN90
RayThunderhill, Phoenix, AZ

RayThunderhillPhoenix, AZ

Lat: 33.312, Lon: -112.029

Elevation: 1260

Station Type: Davis Vantage VUE

Latest ConditionsUpdated 10:15:01 PM MST Thursday, Jun 22, 2017
Currently Today's Max Today's Min Today's Average
Temperature 100.5°F38.1°C 112.1°F44.5°C 84.3°F29.1°C 100.6°F38.1°C
Dew Point 57.2°F14.0°C 57.3°F14.1°C 42.1°F5.6°C 49.6°F9.8°C
Winds 2.2 mph W3.5 kmh W 4.3 mph WSW6.9 kmh WSW - 1.3 mph 2.1 kmh
Wind Gusts 3.0 mph4.8 kmh 12.0 mph19.3 kmh - -
Humidity 24% 32% 11% 19%
Pressure 29.53 in1000.0 mb 29.61 in1002.7 mb 29.47 in998.0 mb -
Hour Temp Dew Point Humidity Winds Wind Gusts Pressure Precip Precip Rate Daily Precip Total
10:15 PM 100.5°F38.1°C 57.2°F14.0°C 24% 2.2 mph W3.5 kmh W 3.0 mph4.8 kmh 29.53 in1000.0 mb - 0.00 in0.0 mm 0.00 in0.0 mm
10:00 PM 100.7°F38.2°C 57.3°F14.1°C 24% 2.2 mph SW3.5 kmh SW 4.0 mph6.4 kmh 29.53 in1000.0 mb - 0.00 in0.0 mm 0.00 in0.0 mm
09:45 PM 101.1°F38.4°C 56.5°F13.6°C 23% 2.5 mph W4.0 kmh W 6.0 mph9.7 kmh 29.52 in999.7 mb - 0.00 in0.0 mm 0.00 in0.0 mm
09:30 PM 101.6°F38.7°C 56.9°F13.8°C 23% 1.9 mph WNW3.1 kmh WNW 4.0 mph6.4 kmh 29.52 in999.7 mb - 0.00 in0.0 mm 0.00 in0.0 mm
09:15 PM 102.4°F39.1°C 56.3°F13.5°C 22% 2.7 mph W4.3 kmh W 7.0 mph11.3 kmh 29.52 in999.7 mb - 0.00 in0.0 mm 0.00 in0.0 mm
09:00 PM 103.4°F39.7°C 54.5°F12.5°C 20% 3.9 mph W6.3 kmh W 8.0 mph12.9 kmh 29.51 in999.3 mb - 0.00 in0.0 mm 0.00 in0.0 mm
08:45 PM 104.1°F40.1°C 49.0°F9.4°C 16% 1.6 mph WSW2.6 kmh WSW 2.0 mph3.2 kmh 29.51 in999.3 mb - 0.00 in0.0 mm 0.00 in0.0 mm
08:30 PM 104.8°F40.4°C 49.6°F9.8°C 16% 1.6 mph WNW2.6 kmh WNW 5.0 mph8.0 kmh 29.50 in999.0 mb - 0.00 in0.0 mm 0.00 in0.0 mm
08:15 PM 105.3°F40.7°C 48.2°F9.0°C 15% 3.1 mph WSW5.0 kmh WSW 5.0 mph8.0 kmh 29.51 in999.3 mb - 0.00 in0.0 mm 0.00 in0.0 mm
08:00 PM 105.5°F40.8°C 46.6°F8.1°C 14% 1.5 mph NW2.4 kmh NW 5.0 mph8.0 kmh 29.50 in999.0 mb - 0.00 in0.0 mm 0.00 in0.0 mm
07:45 PM 106.2°F41.2°C 45.1°F7.3°C 13% 1.4 mph W2.3 kmh W 3.0 mph4.8 kmh 29.49 in998.6 mb - 0.00 in0.0 mm 0.00 in0.0 mm
07:30 PM 106.7°F41.5°C 43.4°F6.3°C 12% 2.6 mph WSW4.2 kmh WSW 5.0 mph8.0 kmh 29.49 in998.6 mb - 0.00 in0.0 mm 0.00 in0.0 mm
07:15 PM 107.4°F41.9°C 44.0°F6.7°C 12% 3.5 mph W5.6 kmh W 7.0 mph11.3 kmh 29.49 in998.6 mb - 0.00 in0.0 mm 0.00 in0.0 mm
07:00 PM 107.9°F42.2°C 42.1°F5.6°C 11% 2.5 mph WSW4.0 kmh WSW 5.0 mph8.0 kmh 29.49 in998.6 mb - 0.00 in0.0 mm 0.00 in0.0 mm
06:45 PM 108.2°F42.3°C 44.6°F7.0°C 12% 2.7 mph WSW4.3 kmh WSW 4.0 mph6.4 kmh 29.49 in998.6 mb - 0.00 in0.0 mm 0.00 in0.0 mm
06:30 PM 108.6°F42.6°C 44.9°F7.2°C 12% 4.3 mph SW6.9 kmh SW 8.0 mph12.9 kmh 29.49 in998.6 mb - 0.00 in0.0 mm 0.00 in0.0 mm
06:15 PM 108.8°F42.7°C 45.1°F7.3°C 12% 3.9 mph W6.3 kmh W 5.0 mph8.0 kmh 29.48 in998.3 mb - 0.00 in0.0 mm 0.00 in0.0 mm
06:00 PM 109.6°F43.1°C 45.7°F7.6°C 12% 3.3 mph W5.3 kmh W 8.0 mph12.9 kmh 29.48 in998.3 mb - 0.00 in0.0 mm 0.00 in0.0 mm
05:45 PM 109.8°F43.2°C 45.8°F7.7°C 12% 4.3 mph WSW6.9 kmh WSW 5.0 mph8.0 kmh 29.48 in998.3 mb - 0.00 in0.0 mm 0.00 in0.0 mm
05:30 PM 110.1°F43.4°C 46.0°F7.8°C 12% 0.8 mph S1.3 kmh S 3.0 mph4.8 kmh 29.49 in998.6 mb - 0.00 in0.0 mm 0.00 in0.0 mm
05:15 PM 110.5°F43.6°C 46.3°F7.9°C 12% 1.3 mph W2.1 kmh W 2.0 mph3.2 kmh 29.49 in998.6 mb - 0.00 in0.0 mm 0.00 in0.0 mm
05:00 PM 111.0°F43.9°C 46.7°F8.2°C 12% 0.8 mph NW1.3 kmh NW 2.0 mph3.2 kmh 29.50 in999.0 mb - 0.00 in0.0 mm 0.00 in0.0 mm
04:45 PM 111.7°F44.3°C 45.0°F7.2°C 11% 4.1 mph SSW6.6 kmh SSW 10.0 mph16.1 kmh 29.49 in998.6 mb - 0.00 in0.0 mm 0.00 in0.0 mm
04:30 PM 111.6°F44.2°C 44.9°F7.2°C 11% 1.0 mph W1.6 kmh W 2.0 mph3.2 kmh 29.50 in999.0 mb - 0.00 in0.0 mm 0.00 in0.0 mm
04:15 PM 111.8°F44.3°C 45.1°F7.3°C 11% 2.1 mph WNW3.4 kmh WNW 5.0 mph8.0 kmh 29.51 in999.3 mb - 0.00 in0.0 mm 0.00 in0.0 mm
04:00 PM 111.5°F44.2°C 44.8°F7.1°C 11% 2.1 mph SW3.4 kmh SW 5.0 mph8.0 kmh 29.52 in999.7 mb - 0.00 in0.0 mm 0.00 in0.0 mm
03:45 PM 111.6°F44.2°C 44.9°F7.2°C 11% 2.9 mph W4.7 kmh W 4.0 mph6.4 kmh 29.51 in999.3 mb - 0.00 in0.0 mm 0.00 in0.0 mm
03:30 PM 112.1°F44.5°C 45.3°F7.4°C 11% 1.8 mph SW2.9 kmh SW 4.0 mph6.4 kmh 29.52 in999.7 mb - 0.00 in0.0 mm 0.00 in0.0 mm
03:15 PM 111.6°F44.2°C 44.9°F7.2°C 11% 2.4 mph WSW3.9 kmh WSW 4.0 mph6.4 kmh 29.53 in1000.0 mb - 0.00 in0.0 mm 0.00 in0.0 mm
03:00 PM 111.3°F44.1°C 44.6°F7.0°C 11% 3.5 mph W5.6 kmh W 6.0 mph9.7 kmh 29.53 in1000.0 mb - 0.00 in0.0 mm 0.00 in0.0 mm
02:45 PM 111.9°F44.4°C 47.4°F8.6°C 12% 1.3 mph NW2.1 kmh NW 4.0 mph6.4 kmh 29.53 in1000.0 mb - 0.00 in0.0 mm 0.00 in0.0 mm
02:30 PM 110.5°F43.6°C 46.3°F7.9°C 12% 2.0 mph WSW3.2 kmh WSW 6.0 mph9.7 kmh 29.54 in1000.3 mb - 0.00 in0.0 mm 0.00 in0.0 mm
02:15 PM 110.9°F43.8°C 48.8°F9.3°C 13% 3.9 mph WSW6.3 kmh WSW 12.0 mph19.3 kmh 29.55 in1000.7 mb - 0.00 in0.0 mm 0.00 in0.0 mm
02:00 PM 110.5°F43.6°C 48.5°F9.2°C 13% 3.2 mph WSW5.1 kmh WSW 6.0 mph9.7 kmh 29.55 in1000.7 mb - 0.00 in0.0 mm 0.00 in0.0 mm
01:45 PM 109.9°F43.3°C 48.0°F8.9°C 13% 0.1 mph W0.2 kmh W 1.0 mph1.6 kmh 29.55 in1000.7 mb - 0.00 in0.0 mm 0.00 in0.0 mm
01:30 PM 109.2°F42.9°C 51.4°F10.8°C 15% 0.6 mph SW1.0 kmh SW 2.0 mph3.2 kmh 29.56 in1001.0 mb - 0.00 in0.0 mm 0.00 in0.0 mm
01:15 PM 109.0°F42.8°C 51.1°F10.6°C 15% 1.7 mph S2.7 kmh S 3.0 mph4.8 kmh 29.57 in1001.4 mb - 0.00 in0.0 mm 0.00 in0.0 mm
01:00 PM 109.1°F42.8°C 51.2°F10.7°C 15% 1.4 mph WSW2.3 kmh WSW 5.0 mph8.0 kmh 29.57 in1001.4 mb - 0.00 in0.0 mm 0.00 in0.0 mm
12:45 PM 108.6°F42.6°C 50.8°F10.4°C 15% 1.0 mph ESE1.6 kmh ESE 1.0 mph1.6 kmh 29.57 in1001.4 mb - 0.00 in0.0 mm 0.00 in0.0 mm
12:30 PM 107.6°F42.0°C 50.1°F10.1°C 15% 2.6 mph ESE4.2 kmh ESE 4.0 mph6.4 kmh 29.58 in1001.7 mb - 0.00 in0.0 mm 0.00 in0.0 mm
12:15 PM 108.2°F42.3°C 50.6°F10.3°C 15% 0.6 mph W1.0 kmh W 2.0 mph3.2 kmh 29.59 in1002.0 mb - 0.00 in0.0 mm 0.00 in0.0 mm
12:00 PM 107.1°F41.7°C 53.1°F11.7°C 17% 0.6 mph NW1.0 kmh NW 3.0 mph4.8 kmh 29.59 in1002.0 mb - 0.00 in0.0 mm 0.00 in0.0 mm
11:45 AM 105.0°F40.6°C 53.0°F11.7°C 18% 0.3 mph SW0.5 kmh SW 2.0 mph3.2 kmh 29.60 in1002.4 mb - 0.00 in0.0 mm 0.00 in0.0 mm
11:30 AM 105.2°F40.7°C 51.5°F10.8°C 17% 1.5 mph NW2.4 kmh NW 3.0 mph4.8 kmh 29.60 in1002.4 mb - 0.00 in0.0 mm 0.00 in0.0 mm
11:15 AM 104.9°F40.5°C 52.8°F11.6°C 18% 0.1 mph WNW0.2 kmh WNW 1.0 mph1.6 kmh 29.61 in1002.7 mb - 0.00 in0.0 mm 0.00 in0.0 mm
11:00 AM 103.7°F39.8°C 53.3°F11.8°C 19% 0.3 mph SE0.5 kmh SE 2.0 mph3.2 kmh 29.61 in1002.7 mb - 0.00 in0.0 mm 0.00 in0.0 mm
10:45 AM 103.9°F39.9°C 53.5°F11.9°C 19% 0.9 mph S1.4 kmh S 3.0 mph4.8 kmh 29.60 in1002.4 mb - 0.00 in0.0 mm 0.00 in0.0 mm
10:30 AM 102.8°F39.3°C 52.6°F11.4°C 19% 0.1 mph E0.2 kmh E 1.0 mph1.6 kmh 29.61 in1002.7 mb - 0.00 in0.0 mm 0.00 in0.0 mm
10:15 AM 102.0°F38.9°C 52.0°F11.1°C 19% 1.2 mph NNW1.9 kmh NNW 2.0 mph3.2 kmh 29.61 in1002.7 mb - 0.00 in0.0 mm 0.00 in0.0 mm
10:00 AM 102.2°F39.0°C 53.6°F12.0°C 20% 0.6 mph E1.0 kmh E 3.0 mph4.8 kmh 29.61 in1002.7 mb - 0.00 in0.0 mm 0.00 in0.0 mm
09:45 AM 101.2°F38.4°C 54.0°F12.2°C 21% 1.2 mph NNW1.9 kmh NNW 2.0 mph3.2 kmh 29.61 in1002.7 mb - 0.00 in0.0 mm 0.00 in0.0 mm
09:30 AM 101.4°F38.6°C 54.2°F12.3°C 21% 0.8 mph NE1.3 kmh NE 3.0 mph4.8 kmh 29.61 in1002.7 mb - 0.00 in0.0 mm 0.00 in0.0 mm
09:15 AM 100.4°F38.0°C 53.4°F11.9°C 21% 0.1 mph NE0.2 kmh NE 1.0 mph1.6 kmh 29.60 in1002.4 mb - 0.00 in0.0 mm 0.00 in0.0 mm
09:00 AM 100.5°F38.1°C 53.5°F11.9°C 21% 1.5 mph E2.4 kmh E 3.0 mph4.8 kmh 29.60 in1002.4 mb - 0.00 in0.0 mm 0.00 in0.0 mm
08:45 AM 99.2°F37.3°C 51.1°F10.6°C 20% Calm Calm 1.0 mph1.6 kmh 29.61 in1002.7 mb - 0.00 in0.0 mm 0.00 in0.0 mm
08:30 AM 97.3°F36.3°C 52.1°F11.2°C 22% 0.5 mph N0.8 kmh N 1.0 mph1.6 kmh 29.60 in1002.4 mb - 0.00 in0.0 mm 0.00 in0.0 mm
08:15 AM 96.5°F35.8°C 50.2°F10.1°C 21% 1.7 mph NNW2.7 kmh NNW 3.0 mph4.8 kmh 29.60 in1002.4 mb - 0.00 in0.0 mm 0.00 in0.0 mm
08:00 AM 95.5°F35.3°C 50.6°F10.3°C 22% 2.0 mph NNE3.2 kmh NNE 5.0 mph8.0 kmh 29.59 in1002.0 mb - 0.00 in0.0 mm 0.00 in0.0 mm
07:45 AM 95.1°F35.1°C 50.3°F10.2°C 22% 3.4 mph NE5.5 kmh NE 6.0 mph9.7 kmh 29.59 in1002.0 mb - 0.00 in0.0 mm 0.00 in0.0 mm
07:30 AM 94.3°F34.6°C 52.0°F11.1°C 24% 3.8 mph NW6.1 kmh NW 6.0 mph9.7 kmh 29.59 in1002.0 mb - 0.00 in0.0 mm 0.00 in0.0 mm
07:15 AM 93.6°F34.2°C 51.4°F10.8°C 24% 1.2 mph NW1.9 kmh NW 3.0 mph4.8 kmh 29.58 in1001.7 mb - 0.00 in0.0 mm 0.00 in0.0 mm
07:00 AM 92.8°F33.8°C 50.7°F10.4°C 24% 0.1 mph NNE0.2 kmh NNE 1.0 mph1.6 kmh 29.58 in1001.7 mb - 0.00 in0.0 mm 0.00 in0.0 mm
06:45 AM 90.8°F32.7°C 50.1°F10.1°C 25% 0.3 mph N0.5 kmh N 1.0 mph1.6 kmh 29.57 in1001.4 mb - 0.00 in0.0 mm 0.00 in0.0 mm
06:30 AM 88.7°F31.5°C 50.4°F10.2°C 27% 1.4 mph NE2.3 kmh NE 2.0 mph3.2 kmh 29.56 in1001.0 mb - 0.00 in0.0 mm 0.00 in0.0 mm
06:15 AM 87.5°F30.8°C 50.4°F10.2°C 28% 0.9 mph N1.4 kmh N 3.0 mph4.8 kmh 29.56 in1001.0 mb - 0.00 in0.0 mm 0.00 in0.0 mm
06:00 AM 86.5°F30.3°C 51.4°F10.8°C 30% 0.7 mph NE1.1 kmh NE 2.0 mph3.2 kmh 29.55 in1000.7 mb - 0.00 in0.0 mm 0.00 in0.0 mm
05:45 AM 86.0°F30.0°C 51.8°F11.0°C 31% Calm Calm -- 29.54 in1000.3 mb - 0.00 in0.0 mm 0.00 in0.0 mm
05:30 AM 85.8°F29.9°C 51.7°F10.9°C 31% 0.1 mph NNE0.2 kmh NNE -- 29.54 in1000.3 mb - 0.00 in0.0 mm 0.00 in0.0 mm
05:15 AM 84.3°F29.1°C 51.2°F10.7°C 32% Calm Calm -- 29.53 in1000.0 mb - 0.00 in0.0 mm 0.00 in0.0 mm
05:00 AM 85.6°F29.8°C 51.5°F10.8°C 31% Calm Calm -- 29.52 in999.7 mb - 0.00 in0.0 mm 0.00 in0.0 mm
04:45 AM 86.4°F30.2°C 51.3°F10.7°C 30% Calm Calm -- 29.52 in999.7 mb - 0.00 in0.0 mm 0.00 in0.0 mm
04:30 AM 86.7°F30.4°C 51.6°F10.9°C 30% Calm Calm -- 29.52 in999.7 mb - 0.00 in0.0 mm 0.00 in0.0 mm
04:15 AM 87.4°F30.8°C 51.3°F10.7°C 29% Calm Calm -- 29.52 in999.7 mb - 0.00 in0.0 mm 0.00 in0.0 mm
04:00 AM 87.8°F31.0°C 51.5°F10.8°C 29% Calm Calm -- 29.51 in999.3 mb - 0.00 in0.0 mm 0.00 in0.0 mm
03:45 AM 88.4°F31.3°C 51.2°F10.7°C 28% 0.3 mph ESE0.5 kmh ESE 1.0 mph1.6 kmh 29.51 in999.3 mb - 0.00 in0.0 mm 0.00 in0.0 mm
03:30 AM 87.6°F30.9°C 50.5°F10.3°C 28% Calm Calm -- 29.50 in999.0 mb - 0.00 in0.0 mm 0.00 in0.0 mm
03:15 AM 88.1°F31.2°C 50.9°F10.5°C 28% Calm Calm 1.0 mph1.6 kmh 29.50 in999.0 mb - 0.00 in0.0 mm 0.00 in0.0 mm
03:00 AM 88.6°F31.4°C 50.4°F10.2°C 27% Calm Calm -- 29.50 in999.0 mb - 0.00 in0.0 mm 0.00 in0.0 mm
02:45 AM 88.5°F31.4°C 50.3°F10.2°C 27% Calm Calm -- 29.49 in998.6 mb - 0.00 in0.0 mm 0.00 in0.0 mm
02:30 AM 90.0°F32.2°C 49.4°F9.7°C 25% Calm Calm -- 29.49 in998.6 mb - 0.00 in0.0 mm 0.00 in0.0 mm
02:15 AM 91.1°F32.8°C 49.3°F9.6°C 24% Calm Calm -- 29.48 in998.3 mb - 0.00 in0.0 mm 0.00 in0.0 mm
02:00 AM 91.2°F32.9°C 48.2°F9.0°C 23% Calm Calm -- 29.48 in998.3 mb - 0.00 in0.0 mm 0.00 in0.0 mm
01:45 AM 92.2°F33.4°C 47.9°F8.8°C 22% Calm Calm -- 29.49 in998.6 mb - 0.00 in0.0 mm 0.00 in0.0 mm
01:30 AM 92.9°F33.8°C 48.5°F9.2°C 22% Calm Calm -- 29.48 in998.3 mb - 0.00 in0.0 mm 0.00 in0.0 mm
01:15 AM 92.7°F33.7°C 45.7°F7.6°C 20% 1.1 mph N1.8 kmh N 2.0 mph3.2 kmh 29.47 in998.0 mb - 0.00 in0.0 mm 0.00 in0.0 mm
01:00 AM 93.8°F34.3°C 46.7°F8.2°C 20% Calm Calm -- 29.48 in998.3 mb - 0.00 in0.0 mm 0.00 in0.0 mm
12:45 AM 95.4°F35.2°C 46.6°F8.1°C 19% Calm Calm -- 29.47 in998.0 mb - 0.00 in0.0 mm 0.00 in0.0 mm
12:30 AM 96.7°F35.9°C 46.2°F7.9°C 18% Calm Calm -- 29.48 in998.3 mb - 0.00 in0.0 mm 0.00 in0.0 mm
12:15 AM 98.3°F36.8°C 46.0°F7.8°C 17% Calm Calm -- 29.48 in998.3 mb - 0.00 in0.0 mm 0.00 in0.0 mm
12:00 AM 99.9°F37.7°C 45.7°F7.6°C 16% Calm Calm -- 29.48 in998.3 mb - 0.00 in0.0 mm 0.00 in0.0 mm